KWWR/WWR METAR and TAF weather

Enter ICAO airport designator
Station Type Date Time Source
KWWR METAR 2020/01/28 05:15 UTC NOAA

KWWR 280515Z AUTO 06016KT 10SM OVC044 05/01 A2996 RMK AO2


Station Type Date Time Source
KWWR Decoded METAR 2020/01/28 05:15 UTC NOAA

Woodward, West Woodward Airport, OK, United States (KWWR) 36-26-12N 099-31-16W 667M
Jan 28, 2020 - 12:15 AM EST / 2020.01.28 0515 UTC
Wind: from the ENE (060 degrees) at 18 MPH (16 KT):0
Visibility: 10 mile(s):0
Sky conditions: overcast
Temperature: 41 F (5 C)
Dew Point: 33 F (1 C)
Relative Humidity: 75%
Pressure (altimeter): 29.96 in. Hg (1014 hPa)
ob: KWWR 280515Z AUTO 06016KT 10SM OVC044 05/01 A2996 RMK AO2
cycle: 5

Station Type Date Time Source
KWWR TAF 2020/01/27 18:36 UTC NOAA

TAF KWWR 271735Z 2718/2818 07008KT P6SM BKN250
FM280100 09014KT P6SM OVC030
TEMPO 2804/2808 4SM -RA BR OVC020
FM280800 04011KT 6SM -RA OVC007
TEMPO 2808/2812 2SM -RASN BR OVC004
FM281200 01012KT 1SM -SN OVC004
FM281600 36014KT 5SM -SN OVC004

Example: see airport list